sensor_id;sensor_type;location;lat;lon;timestamp;P1;durP1;ratioP1;P2;durP2;ratioP2
9330;SDS011;4704;50.470;12.072;2023-05-15T00:01:37;1.83;;;1.60;;
9330;SDS011;4704;50.470;12.072;2023-05-15T00:04:05;1.80;;;1.70;;
9330;SDS011;4704;50.470;12.072;2023-05-15T00:06:33;1.80;;;1.70;;
9330;SDS011;4704;50.470;12.072;2023-05-15T00:09:00;1.88;;;1.77;;
9330;SDS011;4704;50.470;12.072;2023-05-15T00:11:28;1.80;;;1.70;;
9330;SDS011;4704;50.470;12.072;2023-05-15T00:13:55;1.60;;;1.50;;
9330;SDS011;4704;50.470;12.072;2023-05-15T00:16:23;1.80;;;1.70;;
9330;SDS011;4704;50.470;12.072;2023-05-15T00:18:52;1.52;;;1.42;;
9330;SDS011;4704;50.470;12.072;2023-05-15T00:21:20;1.70;;;1.60;;
9330;SDS011;4704;50.470;12.072;2023-05-15T00:23:47;1.95;;;1.85;;
9330;SDS011;4704;50.470;12.072;2023-05-15T00:26:18;1.70;;;1.60;;
9330;SDS011;4704;50.470;12.072;2023-05-15T00:28:45;1.65;;;1.55;;
9330;SDS011;4704;50.470;12.072;2023-05-15T00:31:12;1.77;;;1.67;;
9330;SDS011;4704;50.470;12.072;2023-05-15T00:33:41;1.83;;;1.73;;
9330;SDS011;4704;50.470;12.072;2023-05-15T00:36:10;1.60;;;1.50;;
9330;SDS011;4704;50.470;12.072;2023-05-15T00:38:37;1.95;;;1.70;;
9330;SDS011;4704;50.470;12.072;2023-05-15T00:41:05;1.70;;;1.60;;
9330;SDS011;4704;50.470;12.072;2023-05-15T00:43:33;1.70;;;1.60;;
9330;SDS011;4704;50.470;12.072;2023-05-15T00:46:01;1.80;;;1.70;;
9330;SDS011;4704;50.470;12.072;2023-05-15T00:48:29;1.80;;;1.70;;
9330;SDS011;4704;50.470;12.072;2023-05-15T00:50:57;1.80;;;1.70;;
9330;SDS011;4704;50.470;12.072;2023-05-15T00:53:26;1.70;;;1.60;;
9330;SDS011;4704;50.470;12.072;2023-05-15T00:55:55;1.63;;;1.52;;
9330;SDS011;4704;50.470;12.072;2023-05-15T00:58:23;1.60;;;1.50;;
9330;SDS011;4704;50.470;12.072;2023-05-15T01:00:53;1.85;;;1.75;;
9330;SDS011;4704;50.470;12.072;2023-05-15T01:03:21;1.80;;;1.70;;
9330;SDS011;4704;50.470;12.072;2023-05-15T01:05:48;1.95;;;1.70;;
9330;SDS011;4704;50.470;12.072;2023-05-15T01:08:18;1.58;;;1.48;;
9330;SDS011;4704;50.470;12.072;2023-05-15T01:10:48;1.73;;;1.63;;
9330;SDS011;4704;50.470;12.072;2023-05-15T01:13:17;1.80;;;1.70;;
9330;SDS011;4704;50.470;12.072;2023-05-15T01:15:46;2.17;;;1.95;;
9330;SDS011;4704;50.470;12.072;2023-05-15T01:18:14;1.45;;;1.35;;
9330;SDS011;4704;50.470;12.072;2023-05-15T01:20:45;1.73;;;1.63;;
9330;SDS011;4704;50.470;12.072;2023-05-15T01:23:14;1.85;;;1.75;;
9330;SDS011;4704;50.470;12.072;2023-05-15T01:25:53;1.80;;;1.70;;
9330;SDS011;4704;50.470;12.072;2023-05-15T01:28:26;1.88;;;1.77;;
9330;SDS011;4704;50.470;12.072;2023-05-15T01:30:55;1.50;;;1.40;;
9330;SDS011;4704;50.470;12.072;2023-05-15T01:33:23;1.70;;;1.60;;
9330;SDS011;4704;50.470;12.072;2023-05-15T01:35:56;1.60;;;1.50;;
9330;SDS011;4704;50.470;12.072;2023-05-15T01:38:26;1.60;;;1.50;;
9330;SDS011;4704;50.470;12.072;2023-05-15T01:40:58;1.70;;;1.60;;
9330;SDS011;4704;50.470;12.072;2023-05-15T01:43:30;1.60;;;1.50;;
9330;SDS011;4704;50.470;12.072;2023-05-15T01:45:58;1.92;;;1.83;;
9330;SDS011;4704;50.470;12.072;2023-05-15T01:48:26;1.80;;;1.70;;
9330;SDS011;4704;50.470;12.072;2023-05-15T01:50:54;1.60;;;1.50;;
9330;SDS011;4704;50.470;12.072;2023-05-15T01:53:24;1.50;;;1.40;;
9330;SDS011;4704;50.470;12.072;2023-05-15T01:55:52;1.80;;;1.70;;
9330;SDS011;4704;50.470;12.072;2023-05-15T01:58:21;1.90;;;1.80;;
9330;SDS011;4704;50.470;12.072;2023-05-15T02:00:50;1.60;;;1.50;;
9330;SDS011;4704;50.470;12.072;2023-05-15T02:03:18;1.80;;;1.70;;
9330;SDS011;4704;50.470;12.072;2023-05-15T02:05:46;1.65;;;1.55;;
9330;SDS011;4704;50.470;12.072;2023-05-15T02:08:14;1.73;;;1.63;;
9330;SDS011;4704;50.470;12.072;2023-05-15T02:10:42;1.70;;;1.60;;
9330;SDS011;4704;50.470;12.072;2023-05-15T02:13:10;1.73;;;1.63;;
9330;SDS011;4704;50.470;12.072;2023-05-15T02:15:38;1.80;;;1.70;;
9330;SDS011;4704;50.470;12.072;2023-05-15T02:18:07;1.70;;;1.60;;
9330;SDS011;4704;50.470;12.072;2023-05-15T02:20:35;1.50;;;1.40;;
9330;SDS011;4704;50.470;12.072;2023-05-15T02:23:03;1.73;;;1.63;;
9330;SDS011;4704;50.470;12.072;2023-05-15T02:25:32;1.55;;;1.45;;
9330;SDS011;4704;50.470;12.072;2023-05-15T02:28:01;1.73;;;1.63;;
9330;SDS011;4704;50.470;12.072;2023-05-15T02:30:32;1.80;;;1.70;;
9330;SDS011;4704;50.470;12.072;2023-05-15T02:33:04;1.58;;;1.48;;
9330;SDS011;4704;50.470;12.072;2023-05-15T02:35:36;1.55;;;1.45;;
9330;SDS011;4704;50.470;12.072;2023-05-15T02:38:08;1.70;;;1.60;;
9330;SDS011;4704;50.470;12.072;2023-05-15T02:40:38;1.70;;;1.60;;
9330;SDS011;4704;50.470;12.072;2023-05-15T02:43:06;1.52;;;1.42;;
9330;SDS011;4704;50.470;12.072;2023-05-15T02:45:35;1.80;;;1.70;;
9330;SDS011;4704;50.470;12.072;2023-05-15T02:48:03;1.58;;;1.48;;
9330;SDS011;4704;50.470;12.072;2023-05-15T02:50:32;1.90;;;1.80;;
9330;SDS011;4704;50.470;12.072;2023-05-15T02:53:04;1.73;;;1.63;;
9330;SDS011;4704;50.470;12.072;2023-05-15T02:55:34;1.60;;;1.50;;
9330;SDS011;4704;50.470;12.072;2023-05-15T02:58:02;1.60;;;1.50;;
9330;SDS011;4704;50.470;12.072;2023-05-15T03:00:30;1.80;;;1.70;;
9330;SDS011;4704;50.470;12.072;2023-05-15T03:02:58;1.60;;;1.50;;
9330;SDS011;4704;50.470;12.072;2023-05-15T03:05:26;1.60;;;1.50;;
9330;SDS011;4704;50.470;12.072;2023-05-15T03:07:53;1.58;;;1.48;;
9330;SDS011;4704;50.470;12.072;2023-05-15T03:10:23;1.70;;;1.60;;
9330;SDS011;4704;50.470;12.072;2023-05-15T03:12:50;1.67;;;1.58;;
9330;SDS011;4704;50.470;12.072;2023-05-15T03:15:18;1.55;;;1.45;;
9330;SDS011;4704;50.470;12.072;2023-05-15T03:17:46;1.45;;;1.30;;
9330;SDS011;4704;50.470;12.072;2023-05-15T03:20:14;1.60;;;1.50;;
9330;SDS011;4704;50.470;12.072;2023-05-15T03:22:42;1.60;;;1.50;;
9330;SDS011;4704;50.470;12.072;2023-05-15T03:25:10;1.40;;;1.30;;
9330;SDS011;4704;50.470;12.072;2023-05-15T03:27:39;2.22;;;1.55;;
9330;SDS011;4704;50.470;12.072;2023-05-15T03:30:07;1.50;;;1.40;;
9330;SDS011;4704;50.470;12.072;2023-05-15T03:32:35;1.67;;;1.50;;
9330;SDS011;4704;50.470;12.072;2023-05-15T03:35:03;1.77;;;1.67;;
9330;SDS011;4704;50.470;12.072;2023-05-15T03:37:31;1.70;;;1.60;;
9330;SDS011;4704;50.470;12.072;2023-05-15T03:39:58;1.63;;;1.52;;
9330;SDS011;4704;50.470;12.072;2023-05-15T03:42:25;1.67;;;1.58;;
9330;SDS011;4704;50.470;12.072;2023-05-15T03:44:55;1.60;;;1.50;;
9330;SDS011;4704;50.470;12.072;2023-05-15T03:47:22;1.80;;;1.70;;
9330;SDS011;4704;50.470;12.072;2023-05-15T03:49:49;1.65;;;1.55;;
9330;SDS011;4704;50.470;12.072;2023-05-15T03:52:16;1.40;;;1.30;;
9330;SDS011;4704;50.470;12.072;2023-05-15T03:54:44;1.65;;;1.55;;
9330;SDS011;4704;50.470;12.072;2023-05-15T03:57:11;1.67;;;1.58;;
9330;SDS011;4704;50.470;12.072;2023-05-15T03:59:39;1.80;;;1.70;;
9330;SDS011;4704;50.470;12.072;2023-05-15T04:02:08;1.58;;;1.48;;
9330;SDS011;4704;50.470;12.072;2023-05-15T04:04:35;2.08;;;1.98;;
9330;SDS011;4704;50.470;12.072;2023-05-15T04:07:02;1.60;;;1.50;;
9330;SDS011;4704;50.470;12.072;2023-05-15T04:09:30;1.67;;;1.58;;
9330;SDS011;4704;50.470;12.072;2023-05-15T04:11:57;1.75;;;1.65;;
9330;SDS011;4704;50.470;12.072;2023-05-15T04:14:25;1.65;;;1.55;;
9330;SDS011;4704;50.470;12.072;2023-05-15T04:16:52;1.65;;;1.55;;
9330;SDS011;4704;50.470;12.072;2023-05-15T04:19:21;1.60;;;1.50;;
9330;SDS011;4704;50.470;12.072;2023-05-15T04:21:48;1.60;;;1.50;;
9330;SDS011;4704;50.470;12.072;2023-05-15T04:24:15;1.63;;;1.52;;
9330;SDS011;4704;50.470;12.072;2023-05-15T04:26:43;1.48;;;1.38;;
9330;SDS011;4704;50.470;12.072;2023-05-15T04:29:10;1.42;;;1.33;;
9330;SDS011;4704;50.470;12.072;2023-05-15T04:31:37;1.70;;;1.60;;
9330;SDS011;4704;50.470;12.072;2023-05-15T04:34:05;1.40;;;1.30;;
9330;SDS011;4704;50.470;12.072;2023-05-15T04:36:33;1.48;;;1.38;;
9330;SDS011;4704;50.470;12.072;2023-05-15T04:39:01;1.55;;;1.45;;
9330;SDS011;4704;50.470;12.072;2023-05-15T04:41:29;1.55;;;1.45;;
9330;SDS011;4704;50.470;12.072;2023-05-15T04:43:57;1.65;;;1.55;;
9330;SDS011;4704;50.470;12.072;2023-05-15T04:46:24;1.50;;;1.40;;
9330;SDS011;4704;50.470;12.072;2023-05-15T04:48:53;1.88;;;1.77;;
9330;SDS011;4704;50.470;12.072;2023-05-15T04:51:20;1.67;;;1.58;;
9330;SDS011;4704;50.470;12.072;2023-05-15T04:53:49;1.70;;;1.60;;
9330;SDS011;4704;50.470;12.072;2023-05-15T04:56:17;1.60;;;1.50;;
9330;SDS011;4704;50.470;12.072;2023-05-15T04:58:45;1.50;;;1.40;;
9330;SDS011;4704;50.470;12.072;2023-05-15T05:01:12;1.30;;;1.20;;
9330;SDS011;4704;50.470;12.072;2023-05-15T05:03:40;1.60;;;1.50;;
9330;SDS011;4704;50.470;12.072;2023-05-15T05:06:07;1.50;;;1.40;;
9330;SDS011;4704;50.470;12.072;2023-05-15T05:08:36;1.67;;;1.58;;
9330;SDS011;4704;50.470;12.072;2023-05-15T05:11:05;1.48;;;1.27;;
9330;SDS011;4704;50.470;12.072;2023-05-15T05:13:32;1.80;;;1.70;;
9330;SDS011;4704;50.470;12.072;2023-05-15T05:16:00;2.13;;;1.88;;
9330;SDS011;4704;50.470;12.072;2023-05-15T05:18:28;2.97;;;2.03;;
9330;SDS011;4704;50.470;12.072;2023-05-15T05:20:59;2.38;;;2.17;;
9330;SDS011;4704;50.470;12.072;2023-05-15T05:23:27;3.42;;;2.08;;
9330;SDS011;4704;50.470;12.072;2023-05-15T05:26:01;3.70;;;2.70;;
9330;SDS011;4704;50.470;12.072;2023-05-15T05:28:30;5.82;;;2.78;;
9330;SDS011;4704;50.470;12.072;2023-05-15T05:30:58;5.80;;;3.20;;
9330;SDS011;4704;50.470;12.072;2023-05-15T05:33:26;4.60;;;3.13;;
9330;SDS011;4704;50.470;12.072;2023-05-15T05:35:54;6.00;;;3.05;;
9330;SDS011;4704;50.470;12.072;2023-05-15T05:38:21;4.95;;;3.25;;
9330;SDS011;4704;50.470;12.072;2023-05-15T05:40:50;7.75;;;3.58;;
9330;SDS011;4704;50.470;12.072;2023-05-15T05:43:18;8.35;;;3.50;;
9330;SDS011;4704;50.470;12.072;2023-05-15T05:45:47;8.80;;;4.25;;
9330;SDS011;4704;50.470;12.072;2023-05-15T05:48:15;9.25;;;4.43;;
9330;SDS011;4704;50.470;12.072;2023-05-15T05:50:42;9.75;;;4.55;;
9330;SDS011;4704;50.470;12.072;2023-05-15T05:53:09;9.02;;;4.25;;
9330;SDS011;4704;50.470;12.072;2023-05-15T05:55:37;11.75;;;4.45;;
9330;SDS011;4704;50.470;12.072;2023-05-15T05:58:04;8.38;;;4.15;;
9330;SDS011;4704;50.470;12.072;2023-05-15T06:00:31;6.20;;;3.85;;
9330;SDS011;4704;50.470;12.072;2023-05-15T06:03:00;9.93;;;4.10;;
9330;SDS011;4704;50.470;12.072;2023-05-15T06:05:28;7.72;;;3.85;;
9330;SDS011;4704;50.470;12.072;2023-05-15T06:07:55;8.57;;;4.45;;
9330;SDS011;4704;50.470;12.072;2023-05-15T06:10:24;7.00;;;4.35;;
9330;SDS011;4704;50.470;12.072;2023-05-15T06:12:51;8.45;;;4.32;;
9330;SDS011;4704;50.470;12.072;2023-05-15T06:15:19;9.70;;;4.45;;
9330;SDS011;4704;50.470;12.072;2023-05-15T06:17:46;10.50;;;4.30;;
9330;SDS011;4704;50.470;12.072;2023-05-15T06:20:15;7.70;;;4.18;;
9330;SDS011;4704;50.470;12.072;2023-05-15T06:22:42;8.07;;;4.13;;
9330;SDS011;4704;50.470;12.072;2023-05-15T06:25:10;8.75;;;4.32;;
9330;SDS011;4704;50.470;12.072;2023-05-15T06:27:39;7.97;;;4.28;;
9330;SDS011;4704;50.470;12.072;2023-05-15T06:30:07;9.38;;;4.28;;
9330;SDS011;4704;50.470;12.072;2023-05-15T06:32:34;7.95;;;4.20;;
9330;SDS011;4704;50.470;12.072;2023-05-15T06:35:02;9.02;;;4.75;;
9330;SDS011;4704;50.470;12.072;2023-05-15T06:37:30;7.95;;;4.07;;
9330;SDS011;4704;50.470;12.072;2023-05-15T06:39:58;7.53;;;4.38;;
9330;SDS011;4704;50.470;12.072;2023-05-15T06:42:25;7.28;;;3.92;;
9330;SDS011;4704;50.470;12.072;2023-05-15T06:44:53;9.45;;;4.07;;
9330;SDS011;4704;50.470;12.072;2023-05-15T06:47:20;9.27;;;4.13;;
9330;SDS011;4704;50.470;12.072;2023-05-15T06:49:47;7.65;;;4.00;;
9330;SDS011;4704;50.470;12.072;2023-05-15T06:52:15;7.88;;;4.20;;
9330;SDS011;4704;50.470;12.072;2023-05-15T06:54:44;6.88;;;4.18;;
9330;SDS011;4704;50.470;12.072;2023-05-15T06:57:12;9.60;;;4.25;;
9330;SDS011;4704;50.470;12.072;2023-05-15T06:59:39;5.97;;;3.67;;
9330;SDS011;4704;50.470;12.072;2023-05-15T07:02:07;7.03;;;4.03;;
9330;SDS011;4704;50.470;12.072;2023-05-15T07:04:34;6.93;;;4.60;;
9330;SDS011;4704;50.470;12.072;2023-05-15T07:07:01;7.88;;;4.20;;
9330;SDS011;4704;50.470;12.072;2023-05-15T07:09:29;6.80;;;4.13;;
9330;SDS011;4704;50.470;12.072;2023-05-15T07:11:58;7.65;;;4.30;;
9330;SDS011;4704;50.470;12.072;2023-05-15T07:14:25;7.50;;;4.32;;
9330;SDS011;4704;50.470;12.072;2023-05-15T07:16:53;7.63;;;4.07;;
9330;SDS011;4704;50.470;12.072;2023-05-15T07:19:20;5.70;;;3.97;;
9330;SDS011;4704;50.470;12.072;2023-05-15T07:21:48;5.68;;;3.80;;
9330;SDS011;4704;50.470;12.072;2023-05-15T07:24:15;6.25;;;4.22;;
9330;SDS011;4704;50.470;12.072;2023-05-15T07:26:42;7.00;;;4.15;;
9330;SDS011;4704;50.470;12.072;2023-05-15T07:29:11;8.63;;;4.85;;
9330;SDS011;4704;50.470;12.072;2023-05-15T07:31:39;5.50;;;3.90;;
9330;SDS011;4704;50.470;12.072;2023-05-15T07:34:08;6.00;;;4.57;;
9330;SDS011;4704;50.470;12.072;2023-05-15T07:36:36;6.35;;;4.05;;
9330;SDS011;4704;50.470;12.072;2023-05-15T07:39:03;5.70;;;4.18;;
9330;SDS011;4704;50.470;12.072;2023-05-15T07:41:31;5.57;;;4.00;;
9330;SDS011;4704;50.470;12.072;2023-05-15T07:43:58;5.70;;;4.28;;
9330;SDS011;4704;50.470;12.072;2023-05-15T07:46:27;5.47;;;4.05;;
9330;SDS011;4704;50.470;12.072;2023-05-15T07:48:55;6.03;;;4.10;;
9330;SDS011;4704;50.470;12.072;2023-05-15T07:51:22;6.32;;;4.93;;
9330;SDS011;4704;50.470;12.072;2023-05-15T07:53:49;4.60;;;3.67;;
9330;SDS011;4704;50.470;12.072;2023-05-15T07:56:16;6.35;;;3.70;;
9330;SDS011;4704;50.470;12.072;2023-05-15T07:58:44;6.28;;;4.30;;
9330;SDS011;4704;50.470;12.072;2023-05-15T08:01:11;5.25;;;4.30;;
9330;SDS011;4704;50.470;12.072;2023-05-15T08:03:40;4.95;;;3.80;;
9330;SDS011;4704;50.470;12.072;2023-05-15T08:06:08;4.93;;;3.90;;
9330;SDS011;4704;50.470;12.072;2023-05-15T08:08:35;5.93;;;4.10;;
9330;SDS011;4704;50.470;12.072;2023-05-15T08:11:02;6.10;;;4.05;;
9330;SDS011;4704;50.470;12.072;2023-05-15T08:13:30;4.88;;;3.88;;
9330;SDS011;4704;50.470;12.072;2023-05-15T08:15:57;5.35;;;4.18;;
9330;SDS011;4704;50.470;12.072;2023-05-15T08:18:24;4.68;;;3.70;;
9330;SDS011;4704;50.470;12.072;2023-05-15T08:20:53;4.40;;;3.75;;
9330;SDS011;4704;50.470;12.072;2023-05-15T08:23:20;5.50;;;4.20;;
9330;SDS011;4704;50.470;12.072;2023-05-15T08:25:48;7.00;;;4.10;;
9330;SDS011;4704;50.470;12.072;2023-05-15T08:28:15;5.53;;;4.20;;
9330;SDS011;4704;50.470;12.072;2023-05-15T08:30:43;5.18;;;3.80;;
9330;SDS011;4704;50.470;12.072;2023-05-15T08:33:10;4.85;;;3.47;;
9330;SDS011;4704;50.470;12.072;2023-05-15T08:35:37;4.10;;;3.38;;
9330;SDS011;4704;50.470;12.072;2023-05-15T08:38:06;6.22;;;4.18;;
9330;SDS011;4704;50.470;12.072;2023-05-15T08:40:33;5.00;;;3.60;;
9330;SDS011;4704;50.470;12.072;2023-05-15T08:43:02;4.43;;;3.83;;
9330;SDS011;4704;50.470;12.072;2023-05-15T08:45:30;5.60;;;4.00;;
9330;SDS011;4704;50.470;12.072;2023-05-15T08:47:58;4.35;;;3.95;;
9330;SDS011;4704;50.470;12.072;2023-05-15T08:50:26;3.88;;;3.47;;
9330;SDS011;4704;50.470;12.072;2023-05-15T08:52:54;3.65;;;3.35;;
9330;SDS011;4704;50.470;12.072;2023-05-15T08:55:25;3.95;;;3.55;;
9330;SDS011;4704;50.470;12.072;2023-05-15T08:57:53;3.70;;;3.40;;
9330;SDS011;4704;50.470;12.072;2023-05-15T09:00:21;4.88;;;3.90;;
9330;SDS011;4704;50.470;12.072;2023-05-15T09:02:49;4.47;;;3.88;;
9330;SDS011;4704;50.470;12.072;2023-05-15T09:05:16;3.78;;;3.47;;
9330;SDS011;4704;50.470;12.072;2023-05-15T09:07:43;4.38;;;3.83;;
9330;SDS011;4704;50.470;12.072;2023-05-15T09:10:12;4.25;;;3.85;;
9330;SDS011;4704;50.470;12.072;2023-05-15T09:12:41;4.90;;;3.75;;
9330;SDS011;4704;50.470;12.072;2023-05-15T09:15:10;4.03;;;3.60;;
9330;SDS011;4704;50.470;12.072;2023-05-15T09:17:38;3.60;;;3.30;;
9330;SDS011;4704;50.470;12.072;2023-05-15T09:20:10;3.95;;;3.60;;
9330;SDS011;4704;50.470;12.072;2023-05-15T09:22:50;3.97;;;3.63;;
9330;SDS011;4704;50.470;12.072;2023-05-15T09:25:30;4.88;;;3.70;;
9330;SDS011;4704;50.470;12.072;2023-05-15T09:27:59;4.55;;;3.47;;
9330;SDS011;4704;50.470;12.072;2023-05-15T09:30:27;4.50;;;4.10;;
9330;SDS011;4704;50.470;12.072;2023-05-15T09:32:55;4.22;;;3.75;;
9330;SDS011;4704;50.470;12.072;2023-05-15T09:35:32;3.78;;;3.47;;
9330;SDS011;4704;50.470;12.072;2023-05-15T09:38:00;3.97;;;3.63;;
9330;SDS011;4704;50.470;12.072;2023-05-15T09:40:28;3.97;;;3.65;;
9330;SDS011;4704;50.470;12.072;2023-05-15T09:42:56;4.38;;;3.50;;
9330;SDS011;4704;50.470;12.072;2023-05-15T09:45:25;4.03;;;3.55;;
9330;SDS011;4704;50.470;12.072;2023-05-15T09:47:54;4.15;;;3.75;;
9330;SDS011;4704;50.470;12.072;2023-05-15T09:50:22;4.30;;;3.90;;
9330;SDS011;4704;50.470;12.072;2023-05-15T09:52:49;3.80;;;3.50;;
9330;SDS011;4704;50.470;12.072;2023-05-15T09:55:18;3.85;;;3.53;;
9330;SDS011;4704;50.470;12.072;2023-05-15T09:57:51;3.45;;;3.15;;
9330;SDS011;4704;50.470;12.072;2023-05-15T10:00:31;4.05;;;3.63;;
9330;SDS011;4704;50.470;12.072;2023-05-15T10:03:00;3.70;;;3.35;;
9330;SDS011;4704;50.470;12.072;2023-05-15T10:05:28;3.58;;;3.28;;
9330;SDS011;4704;50.470;12.072;2023-05-15T10:07:56;3.65;;;3.35;;
9330;SDS011;4704;50.470;12.072;2023-05-15T10:10:23;3.50;;;3.30;;
9330;SDS011;4704;50.470;12.072;2023-05-15T10:12:51;3.38;;;3.08;;
9330;SDS011;4704;50.470;12.072;2023-05-15T10:15:20;3.40;;;3.10;;
9330;SDS011;4704;50.470;12.072;2023-05-15T10:17:49;3.20;;;2.90;;
9330;SDS011;4704;50.470;12.072;2023-05-15T10:20:19;3.78;;;3.28;;
9330;SDS011;4704;50.470;12.072;2023-05-15T10:22:46;3.55;;;3.25;;
9330;SDS011;4704;50.470;12.072;2023-05-15T10:25:15;3.65;;;3.35;;
9330;SDS011;4704;50.470;12.072;2023-05-15T10:27:42;3.45;;;3.20;;
9330;SDS011;4704;50.470;12.072;2023-05-15T10:30:13;3.60;;;3.30;;
9330;SDS011;4704;50.470;12.072;2023-05-15T10:32:41;3.83;;;3.53;;
9330;SDS011;4704;50.470;12.072;2023-05-15T10:35:10;3.50;;;3.20;;
9330;SDS011;4704;50.470;12.072;2023-05-15T10:37:38;3.42;;;3.13;;
9330;SDS011;4704;50.470;12.072;2023-05-15T10:40:06;3.67;;;3.38;;
9330;SDS011;4704;50.470;12.072;2023-05-15T10:42:35;3.85;;;3.53;;
9330;SDS011;4704;50.470;12.072;2023-05-15T10:45:03;3.47;;;3.17;;
9330;SDS011;4704;50.470;12.072;2023-05-15T10:47:31;3.72;;;3.42;;
9330;SDS011;4704;50.470;12.072;2023-05-15T10:49:59;3.47;;;3.20;;
9330;SDS011;4704;50.470;12.072;2023-05-15T10:52:28;3.63;;;3.33;;
9330;SDS011;4704;50.470;12.072;2023-05-15T10:54:57;3.22;;;3.03;;
9330;SDS011;4704;50.470;12.072;2023-05-15T10:57:27;3.80;;;3.50;;
9330;SDS011;4704;50.470;12.072;2023-05-15T10:59:55;3.30;;;3.10;;
9330;SDS011;4704;50.470;12.072;2023-05-15T11:02:23;3.40;;;3.10;;
9330;SDS011;4704;50.470;12.072;2023-05-15T11:04:56;3.72;;;3.42;;
9330;SDS011;4704;50.470;12.072;2023-05-15T11:07:26;3.70;;;3.40;;
9330;SDS011;4704;50.470;12.072;2023-05-15T11:09:55;3.72;;;3.42;;
9330;SDS011;4704;50.470;12.072;2023-05-15T11:12:22;3.53;;;3.33;;
9330;SDS011;4704;50.470;12.072;2023-05-15T11:17:36;3.47;;;3.17;;
9330;SDS011;4704;50.470;12.072;2023-05-15T11:20:03;3.22;;;3.03;;
9330;SDS011;4704;50.470;12.072;2023-05-15T11:22:31;3.50;;;3.30;;
9330;SDS011;4704;50.470;12.072;2023-05-15T11:25:02;3.40;;;3.20;;
9330;SDS011;4704;50.470;12.072;2023-05-15T11:27:31;3.45;;;3.15;;
9330;SDS011;4704;50.470;12.072;2023-05-15T11:30:02;3.40;;;3.20;;
9330;SDS011;4704;50.470;12.072;2023-05-15T11:32:30;3.33;;;3.13;;
9330;SDS011;4704;50.470;12.072;2023-05-15T11:34:58;3.20;;;3.00;;
9330;SDS011;4704;50.470;12.072;2023-05-15T11:37:26;3.35;;;3.15;;
9330;SDS011;4704;50.470;12.072;2023-05-15T11:39:54;3.50;;;3.20;;
9330;SDS011;4704;50.470;12.072;2023-05-15T11:42:22;3.13;;;2.92;;
9330;SDS011;4704;50.470;12.072;2023-05-15T11:44:50;3.60;;;3.40;;
9330;SDS011;4704;50.470;12.072;2023-05-15T11:47:18;3.65;;;3.45;;
9330;SDS011;4704;50.470;12.072;2023-05-15T11:49:46;3.25;;;3.05;;
9330;SDS011;4704;50.470;12.072;2023-05-15T11:52:14;3.35;;;3.15;;
9330;SDS011;4704;50.470;12.072;2023-05-15T11:54:42;3.53;;;3.33;;
9330;SDS011;4704;50.470;12.072;2023-05-15T11:57:10;3.53;;;3.33;;
9330;SDS011;4704;50.470;12.072;2023-05-15T11:59:39;3.58;;;3.30;;
9330;SDS011;4704;50.470;12.072;2023-05-15T12:02:06;3.60;;;3.40;;
9330;SDS011;4704;50.470;12.072;2023-05-15T12:04:34;3.65;;;3.45;;
9330;SDS011;4704;50.470;12.072;2023-05-15T12:07:01;3.70;;;3.40;;
9330;SDS011;4704;50.470;12.072;2023-05-15T12:09:29;3.13;;;2.92;;
9330;SDS011;4704;50.470;12.072;2023-05-15T12:11:56;3.10;;;2.90;;
9330;SDS011;4704;50.470;12.072;2023-05-15T12:14:27;3.50;;;3.30;;
9330;SDS011;4704;50.470;12.072;2023-05-15T12:16:58;3.40;;;3.20;;
9330;SDS011;4704;50.470;12.072;2023-05-15T12:19:27;3.65;;;3.35;;
9330;SDS011;4704;50.470;12.072;2023-05-15T12:21:54;3.80;;;3.50;;
9330;SDS011;4704;50.470;12.072;2023-05-15T12:24:21;3.38;;;3.17;;
9330;SDS011;4704;50.470;12.072;2023-05-15T12:26:49;3.80;;;3.55;;
9330;SDS011;4704;50.470;12.072;2023-05-15T12:29:16;3.50;;;3.20;;
9330;SDS011;4704;50.470;12.072;2023-05-15T12:31:44;3.80;;;3.50;;
9330;SDS011;4704;50.470;12.072;2023-05-15T12:34:13;3.40;;;3.13;;
9330;SDS011;4704;50.470;12.072;2023-05-15T12:36:40;3.50;;;3.20;;
9330;SDS011;4704;50.470;12.072;2023-05-15T12:39:07;3.63;;;3.38;;
9330;SDS011;4704;50.470;12.072;2023-05-15T12:41:36;3.40;;;3.20;;
9330;SDS011;4704;50.470;12.072;2023-05-15T12:44:05;3.80;;;3.50;;
9330;SDS011;4704;50.470;12.072;2023-05-15T12:46:32;3.80;;;3.50;;
9330;SDS011;4704;50.470;12.072;2023-05-15T12:49:00;3.47;;;3.28;;
9330;SDS011;4704;50.470;12.072;2023-05-15T12:51:29;3.58;;;3.38;;
9330;SDS011;4704;50.470;12.072;2023-05-15T12:53:57;3.78;;;3.47;;
9330;SDS011;4704;50.470;12.072;2023-05-15T12:56:24;4.13;;;3.72;;
9330;SDS011;4704;50.470;12.072;2023-05-15T12:58:52;3.90;;;3.60;;
9330;SDS011;4704;50.470;12.072;2023-05-15T13:01:20;3.45;;;3.22;;
9330;SDS011;4704;50.470;12.072;2023-05-15T13:03:47;3.55;;;3.33;;
9330;SDS011;4704;50.470;12.072;2023-05-15T13:06:15;3.60;;;3.30;;
9330;SDS011;4704;50.470;12.072;2023-05-15T13:08:43;3.63;;;3.42;;
9330;SDS011;4704;50.470;12.072;2023-05-15T13:11:11;4.80;;;3.63;;
9330;SDS011;4704;50.470;12.072;2023-05-15T13:13:42;3.40;;;3.20;;
9330;SDS011;4704;50.470;12.072;2023-05-15T13:16:16;3.58;;;3.38;;
9330;SDS011;4704;50.470;12.072;2023-05-15T13:18:44;4.03;;;3.63;;
9330;SDS011;4704;50.470;12.072;2023-05-15T13:21:11;3.70;;;3.40;;
9330;SDS011;4704;50.470;12.072;2023-05-15T13:23:39;3.50;;;3.20;;
9330;SDS011;4704;50.470;12.072;2023-05-15T13:26:07;3.90;;;3.60;;
9330;SDS011;4704;50.470;12.072;2023-05-15T13:28:35;3.88;;;3.58;;
9330;SDS011;4704;50.470;12.072;2023-05-15T13:31:02;3.72;;;3.30;;
9330;SDS011;4704;50.470;12.072;2023-05-15T13:33:30;3.88;;;3.58;;
9330;SDS011;4704;50.470;12.072;2023-05-15T13:35:58;3.65;;;3.35;;
9330;SDS011;4704;50.470;12.072;2023-05-15T13:38:25;3.72;;;3.47;;
9330;SDS011;4704;50.470;12.072;2023-05-15T13:40:53;4.30;;;3.80;;
9330;SDS011;4704;50.470;12.072;2023-05-15T13:43:21;3.60;;;3.30;;
9330;SDS011;4704;50.470;12.072;2023-05-15T13:45:49;4.47;;;3.53;;
9330;SDS011;4704;50.470;12.072;2023-05-15T13:48:16;3.58;;;3.30;;
9330;SDS011;4704;50.470;12.072;2023-05-15T13:50:43;3.42;;;3.22;;
9330;SDS011;4704;50.470;12.072;2023-05-15T13:53:12;3.45;;;3.22;;
9330;SDS011;4704;50.470;12.072;2023-05-15T13:55:41;3.85;;;3.55;;
9330;SDS011;4704;50.470;12.072;2023-05-15T13:58:09;3.58;;;3.30;;
9330;SDS011;4704;50.470;12.072;2023-05-15T14:00:38;3.80;;;3.60;;
9330;SDS011;4704;50.470;12.072;2023-05-15T14:03:06;3.72;;;3.50;;
9330;SDS011;4704;50.470;12.072;2023-05-15T14:05:34;3.65;;;3.45;;
9330;SDS011;4704;50.470;12.072;2023-05-15T14:08:01;3.50;;;3.30;;
9330;SDS011;4704;50.470;12.072;2023-05-15T14:10:28;3.20;;;3.00;;
9330;SDS011;4704;50.470;12.072;2023-05-15T14:12:56;3.60;;;3.40;;
9330;SDS011;4704;50.470;12.072;2023-05-15T14:15:23;3.40;;;3.20;;
9330;SDS011;4704;50.470;12.072;2023-05-15T14:17:52;3.30;;;3.10;;
9330;SDS011;4704;50.470;12.072;2023-05-15T14:20:19;4.10;;;3.80;;
9330;SDS011;4704;50.470;12.072;2023-05-15T14:22:47;3.53;;;3.33;;
9330;SDS011;4704;50.470;12.072;2023-05-15T14:25:14;3.60;;;3.40;;
9330;SDS011;4704;50.470;12.072;2023-05-15T14:27:41;3.63;;;3.42;;
9330;SDS011;4704;50.470;12.072;2023-05-15T14:30:09;3.50;;;3.30;;
9330;SDS011;4704;50.470;12.072;2023-05-15T14:32:36;3.72;;;3.42;;
9330;SDS011;4704;50.470;12.072;2023-05-15T14:35:06;3.35;;;3.15;;
9330;SDS011;4704;50.470;12.072;2023-05-15T14:37:33;3.38;;;3.17;;
9330;SDS011;4704;50.470;12.072;2023-05-15T14:40:00;3.40;;;3.17;;
9330;SDS011;4704;50.470;12.072;2023-05-15T14:42:28;3.42;;;3.20;;
9330;SDS011;4704;50.470;12.072;2023-05-15T14:44:56;3.50;;;3.30;;
9330;SDS011;4704;50.470;12.072;2023-05-15T14:47:23;3.35;;;3.15;;
9330;SDS011;4704;50.470;12.072;2023-05-15T14:49:52;3.55;;;3.35;;
9330;SDS011;4704;50.470;12.072;2023-05-15T14:52:21;3.58;;;3.35;;
9330;SDS011;4704;50.470;12.072;2023-05-15T14:54:48;3.35;;;3.15;;
9330;SDS011;4704;50.470;12.072;2023-05-15T14:57:15;3.40;;;3.20;;
9330;SDS011;4704;50.470;12.072;2023-05-15T14:59:44;3.47;;;3.28;;
9330;SDS011;4704;50.470;12.072;2023-05-15T15:02:12;3.42;;;3.22;;
9330;SDS011;4704;50.470;12.072;2023-05-15T15:04:39;3.78;;;3.47;;
9330;SDS011;4704;50.470;12.072;2023-05-15T15:07:09;3.50;;;3.30;;
9330;SDS011;4704;50.470;12.072;2023-05-15T15:09:37;3.50;;;3.30;;